createdAt,value
2023-04-09T21:02:39.447Z,6.80
2023-04-09T21:05:19.564Z,7.50
2023-04-09T21:07:49.866Z,7.97
2023-04-09T21:10:17.110Z,7.68
2023-04-09T21:12:44.609Z,7.70
2023-04-09T21:15:12.056Z,8.15
2023-04-09T21:17:39.441Z,7.75
2023-04-09T21:20:07.197Z,8.40
2023-04-09T21:22:35.324Z,7.88
2023-04-09T21:25:03.582Z,7.85
2023-04-09T21:27:31.405Z,7.70
2023-04-09T21:29:59.086Z,7.20
2023-04-09T21:32:26.585Z,6.82
2023-04-09T21:34:53.977Z,6.78
2023-04-09T21:37:21.387Z,6.88
2023-04-09T21:39:49.126Z,6.45
2023-04-09T21:42:16.440Z,6.93
2023-04-09T21:44:43.744Z,6.57
2023-04-09T21:47:12.446Z,6.40
2023-04-09T21:49:40.825Z,5.80
2023-04-09T21:52:14.782Z,6.13
2023-04-09T21:54:45.942Z,5.80
2023-04-09T21:57:13.309Z,5.25
2023-04-09T21:59:41.669Z,5.32
2023-04-09T22:02:09.490Z,5.13
2023-04-09T22:04:37.038Z,4.90
2023-04-09T22:07:04.450Z,6.43
2023-04-09T22:09:31.927Z,5.28
2023-04-09T22:11:59.849Z,4.68
2023-04-09T22:14:29.785Z,4.68
2023-04-09T22:16:58.537Z,4.15
2023-04-09T22:19:26.504Z,4.43
2023-04-09T22:21:54.582Z,4.28
2023-04-09T22:24:30.230Z,4.43
2023-04-09T22:27:01.720Z,4.28
2023-04-09T22:29:29.520Z,3.60
2023-04-09T22:31:56.825Z,4.50
2023-04-09T22:34:24.792Z,4.38
2023-04-09T22:36:52.181Z,4.38
2023-04-09T22:39:19.623Z,5.13
2023-04-09T22:41:47.218Z,5.00
2023-04-09T22:44:14.586Z,4.95
2023-04-09T22:46:42.376Z,4.60
2023-04-09T22:49:10.117Z,5.13
2023-04-09T22:51:38.953Z,4.53
2023-04-09T22:54:07.575Z,4.03
2023-04-09T22:56:36.862Z,4.75
2023-04-09T22:59:05.278Z,6.10
2023-04-09T23:01:33.457Z,6.82
2023-04-09T23:04:00.823Z,7.05
2023-04-09T23:06:28.190Z,5.53
2023-04-09T23:08:56.116Z,6.07
2023-04-09T23:11:23.435Z,6.90
2023-04-09T23:13:50.844Z,7.07
2023-04-09T23:16:18.228Z,7.30
2023-04-09T23:18:45.797Z,7.00
2023-04-09T23:21:14.589Z,6.95
2023-04-09T23:23:42.506Z,6.60
2023-04-09T23:26:09.817Z,7.45
2023-04-09T23:28:37.572Z,6.40
2023-04-09T23:31:05.345Z,6.60
2023-04-09T23:33:32.838Z,6.10
2023-04-09T23:36:00.301Z,6.10
2023-04-09T23:38:27.663Z,5.40
2023-04-09T23:40:55.165Z,5.85
2023-04-09T23:43:22.517Z,5.75
2023-04-09T23:45:50.809Z,5.70
2023-04-09T23:50:45.616Z,5.05
2023-04-09T23:53:12.884Z,5.03
2023-04-09T23:55:58.962Z,4.30
2023-04-09T23:58:44.759Z,4.97
